Wetterdaten: Woche 09.04.12 - 15.04.12 (KW15)
Datum Zeit Temp. A. Feuchte A. Luftdruck Regen Wind Richtung Taupunkt Windchill Windben
09.04.2012 00:00 1,4 C 57 % 1015,0 hPa 0,0 l/m 8,6 km/h N -6,2 C -0,8 C 20,9 km/h
09.04.2012 01:00 1,4 C 56 % 1015,3 hPa 0,0 l/m 7,6 km/h N -6,4 C 0,2 C 19,7 km/h
09.04.2012 02:00 1,2 C 56 % 1015,2 hPa 0,0 l/m 6,2 km/h N -6,6 C 0,4 C 18,1 km/h
09.04.2012 03:00 0,7 C 57 % 1015,1 hPa 0,0 l/m 6,1 km/h N -6,9 C 0,7 C 16,1 km/h
09.04.2012 04:00 0,4 C 57 % 1015,0 hPa 0,0 l/m 5,6 km/h N -7,1 C 0,4 C 14,5 km/h
09.04.2012 05:00 0,2 C 58 % 1014,8 hPa 0,0 l/m 5,3 km/h N -7,1 C 0,2 C 13,7 km/h
09.04.2012 06:00 0,0 C 59 % 1014,7 hPa 0,0 l/m 5,8 km/h N -7,1 C -0,0 C 16,1 km/h
09.04.2012 07:00 0,2 C 59 % 1014,8 hPa 0,0 l/m 4,0 km/h N -6,9 C 0,2 C 11,7 km/h
09.04.2012 08:00 2,1 C 53 % 1014,7 hPa 0,0 l/m 5,9 km/h N -6,5 C 2,1 C 16,1 km/h
09.04.2012 09:00 3,7 C 47 % 1014,5 hPa 0,0 l/m 7,7 km/h N -6,6 C 2,6 C 17,7 km/h
09.04.2012 10:00 5,1 C 43 % 1014,2 hPa 0,0 l/m 8,5 km/h N -6,4 C 3,3 C 20,9 km/h
09.04.2012 11:00 6,4 C 41 % 1013,5 hPa 0,0 l/m 8,7 km/h N -5,8 C 4,5 C 20,1 km/h
09.04.2012 12:00 7,4 C 42 % 1012,9 hPa 0,0 l/m 9,1 km/h N -4,7 C 5,4 C 24,6 km/h
09.04.2012 13:00 8,7 C 41 % 1012,3 hPa 0,0 l/m 6,6 km/h N -3,8 C 8,4 C 17,3 km/h
09.04.2012 14:00 9,1 C 40 % 1011,6 hPa 0,0 l/m 6,9 km/h N -3,8 C 8,6 C 20,9 km/h
09.04.2012 15:00 9,8 C 40 % 1010,8 hPa 0,0 l/m 6,2 km/h N -3,1 C 9,5 C 17,3 km/h
09.04.2012 16:00 9,8 C 38 % 1010,3 hPa 0,0 l/m 6,0 km/h N -3,9 C 9,5 C 18,1 km/h
09.04.2012 17:00 9,8 C 38 % 1010,0 hPa 0,0 l/m 5,9 km/h N -4,0 C 9,4 C 15,3 km/h
09.04.2012 18:00 9,5 C 36 % 1010,0 hPa 0,0 l/m 4,3 km/h N -4,8 C 9,5 C 14,9 km/h
09.04.2012 19:00 8,6 C 39 % 1010,1 hPa 0,0 l/m 0,5 km/h N -4,6 C 8,6 C 3,2 km/h
09.04.2012 20:00 6,1 C 48 % 1010,6 hPa 0,0 l/m 0,1 km/h N -4,1 C 6,1 C 1,2 km/h
09.04.2012 21:00 5,6 C 47 % 1010,9 hPa 0,0 l/m 2,9 km/h N -4,8 C 5,6 C 8,9 km/h
09.04.2012 22:00 5,5 C 48 % 1010,8 hPa 0,0 l/m 1,5 km/h N -4,7 C 5,5 C 6,4 km/h
09.04.2012 23:00 4,0 C 53 % 1010,9 hPa 0,0 l/m 0,9 km/h N -4,8 C 4,0 C 3,6 km/h
10.04.2012 00:00 4,2 C 50 % 1010,7 hPa 0,0 l/m 3,2 km/h N -5,2 C 4,2 C 9,3 km/h
10.04.2012 01:00 3,9 C 52 % 1010,5 hPa 0,0 l/m 1,5 km/h N -5,1 C 3,9 C 6,4 km/h
10.04.2012 02:00 3,1 C 55 % 1010,3 hPa 0,0 l/m 0,4 km/h N -5,0 C 3,1 C 4,8 km/h
10.04.2012 03:00 2,3 C 60 % 1010,1 hPa 0,0 l/m 0,0 km/h N -4,6 C 2,3 C 0,8 km/h
10.04.2012 04:00 1,2 C 66 % 1009,9 hPa 0,0 l/m 0,0 km/h N -4,5 C 1,2 C 0,4 km/h
10.04.2012 05:00 0,1 C 71 % 1009,7 hPa 0,0 l/m 0,0 km/h N -4,5 C 0,1 C 0,0 km/h
10.04.2012 06:00 -0,7 C 75 % 1009,7 hPa 0,0 l/m 0,0 km/h N -4,5 C -0,7 C 0,0 km/h
10.04.2012 07:00 0,2 C 78 % 1009,7 hPa 0,0 l/m 0,1 km/h N -3,2 C 0,2 C 2,4 km/h
10.04.2012 08:00 4,0 C 61 % 1009,4 hPa 0,0 l/m 4,7 km/h N -2,9 C 3,9 C 14,1 km/h
10.04.2012 09:00 6,8 C 53 % 1009,0 hPa 0,0 l/m 4,7 km/h N -2,1 C 6,8 C 10,5 km/h
10.04.2012 10:00 9,8 C 48 % 1008,6 hPa 0,0 l/m 4,4 km/h N -0,8 C 9,8 C 12,5 km/h
10.04.2012 11:00 11,6 C 41 % 1008,0 hPa 0,0 l/m 10,6 km/h N -1,2 C 9,1 C 24,5 km/h
10.04.2012 12:00 13,2 C 38 % 1007,4 hPa 0,0 l/m 12,1 km/h N -1,0 C 10,1 C 27,0 km/h
10.04.2012 13:00 14,3 C 36 % 1006,8 hPa 0,0 l/m 12,4 km/h N -0,5 C 11,3 C 30,2 km/h
10.04.2012 14:00 14,8 C 35 % 1006,2 hPa 0,0 l/m 14,3 km/h N -0,6 C 11,3 C 30,6 km/h
10.04.2012 15:00 15,2 C 34 % 1005,3 hPa 0,0 l/m 15,0 km/h N -0,5 C 11,4 C 32,6 km/h
10.04.2012 16:00 15,6 C 33 % 1004,5 hPa 0,0 l/m 15,8 km/h N -0,8 C 11,6 C 33,0 km/h
10.04.2012 17:00 15,3 C 33 % 1003,6 hPa 0,0 l/m 14,5 km/h N -1,1 C 11,7 C 31,8 km/h
10.04.2012 18:00 14,5 C 35 % 1003,0 hPa 0,0 l/m 14,1 km/h N -0,7 C 11,0 C 33,4 km/h
10.04.2012 19:00 13,4 C 38 % 1002,8 hPa 0,0 l/m 13,2 km/h N -0,6 C 10,1 C 28,2 km/h
10.04.2012 20:00 12,8 C 39 % 1002,5 hPa 0,0 l/m 12,4 km/h N -0,9 C 9,6 C 31,8 km/h
10.04.2012 21:00 11,8 C 41 % 1001,8 hPa 0,0 l/m 14,8 km/h N -1,1 C 7,4 C 30,2 km/h
10.04.2012 22:00 11,0 C 40 % 1000,9 hPa 0,0 l/m 11,3 km/h N -2,0 C 8,2 C 27,4 km/h
10.04.2012 23:00 10,3 C 41 % 1000,0 hPa 0,0 l/m 7,1 km/h N -2,5 C 9,2 C 21,3 km/h
11.04.2012 00:00 9,6 C 42 % 999,3 hPa 0,0 l/m 4,3 km/h N -2,7 C 9,6 C 15,3 km/h
11.04.2012 01:00 8,4 C 44 % 998,9 hPa 0,0 l/m 4,7 km/h N -3,2 C 8,4 C 17,3 km/h
11.04.2012 02:00 7,3 C 49 % 998,5 hPa 0,0 l/m 1,0 km/h N -2,8 C 7,3 C 6,0 km/h
11.04.2012 03:00 4,8 C 58 % 998,2 hPa 0,0 l/m 0,0 km/h N -2,8 C 4,8 C 0,0 km/h
11.04.2012 04:00 3,6 C 65 % 997,8 hPa 0,0 l/m 0,0 km/h N -2,3 C 3,6 C 0,4 km/h
11.04.2012 05:00 2,9 C 70 % 997,6 hPa 0,0 l/m 0,0 km/h N -2,0 C 2,9 C 0,0 km/h
11.04.2012 06:00 2,8 C 74 % 997,6 hPa 0,0 l/m 0,1 km/h N -1,5 C 2,8 C 0,8 km/h
11.04.2012 07:00 3,4 C 75 % 997,9 hPa 0,0 l/m 0,0 km/h N -0,5 C 3,4 C 0,0 km/h
11.04.2012 08:00 5,8 C 70 % 997,9 hPa 0,0 l/m 0,2 km/h N 0,8 C 5,8 C 2,4 km/h
11.04.2012 09:00 8,1 C 64 % 998,0 hPa 0,0 l/m 0,5 km/h N 1,6 C 8,1 C 3,2 km/h
11.04.2012 10:00 9,9 C 59 % 998,0 hPa 0,0 l/m 0,8 km/h N 2,2 C 9,9 C 5,6 km/h
11.04.2012 11:00 12,4 C 56 % 997,9 hPa 0,0 l/m 1,7 km/h N 4,0 C 12,4 C 7,2 km/h
11.04.2012 12:00 15,3 C 52 % 997,6 hPa 0,0 l/m 2,3 km/h N 5,5 C 15,3 C 8,4 km/h
11.04.2012 13:00 17,7 C 46 % 997,2 hPa 0,0 l/m 3,2 km/h N 6,0 C 17,7 C 10,5 km/h
11.04.2012 14:00 18,4 C 43 % 997,1 hPa 0,0 l/m 1,5 km/h N 5,5 C 18,4 C 7,6 km/h
11.04.2012 15:00 19,4 C 40 % 996,7 hPa 0,0 l/m 2,9 km/h N 5,4 C 19,4 C 10,5 km/h
11.04.2012 16:00 19,6 C 39 % 996,3 hPa 0,0 l/m 3,1 km/h N 5,0 C 19,6 C 11,3 km/h
11.04.2012 17:00 18,8 C 43 % 996,3 hPa 0,0 l/m 4,9 km/h N 5,9 C 18,8 C 18,5 km/h
11.04.2012 18:00 17,4 C 48 % 996,4 hPa 0,0 l/m 1,6 km/h N 6,2 C 17,4 C 10,1 km/h
11.04.2012 19:00 16,3 C 51 % 996,5 hPa 0,0 l/m 0,9 km/h N 6,2 C 16,3 C 6,4 km/h
11.04.2012 20:00 15,7 C 51 % 997,2 hPa 0,0 l/m 4,4 km/h N 5,6 C 15,7 C 10,9 km/h
11.04.2012 21:00 14,1 C 60 % 997,8 hPa 0,0 l/m 4,0 km/h N 6,3 C 14,1 C 12,5 km/h
11.04.2012 22:00 11,5 C 69 % 998,5 hPa 0,0 l/m 4,7 km/h N 5,9 C 11,4 C 12,1 km/h
11.04.2012 23:00 9,6 C 69 % 999,1 hPa 0,0 l/m 7,2 km/h N 4,1 C 8,6 C 23,0 km/h
12.04.2012 00:00 8,8 C 68 % 999,3 hPa 0,0 l/m 8,4 km/h N 3,1 C 7,3 C 24,9 km/h
12.04.2012 01:00 8,6 C 67 % 999,4 hPa 0,0 l/m 9,8 km/h N 2,8 C 6,2 C 23,7 km/h
12.04.2012 02:00 8,3 C 67 % 999,3 hPa 0,0 l/m 9,4 km/h N 2,5 C 6,2 C 24,1 km/h
12.04.2012 03:00 8,1 C 67 % 999,1 hPa 0,0 l/m 7,1 km/h N 2,4 C 7,5 C 20,1 km/h
12.04.2012 04:00 7,8 C 69 % 999,1 hPa 0,0 l/m 8,2 km/h N 2,5 C 6,5 C 24,1 km/h
12.04.2012 05:00 6,7 C 76 % 999,2 hPa 0,3 l/m 8,2 km/h N 2,7 C 5,2 C 26,1 km/h
12.04.2012 06:00 6,0 C 79 % 999,5 hPa 0,0 l/m 7,4 km/h N 2,6 C 5,2 C 20,1 km/h
12.04.2012 07:00 5,4 C 80 % 999,9 hPa 0,8 l/m 7,9 km/h N 2,3 C 4,1 C 24,1 km/h
12.04.2012 08:00 4,8 C 82 % 1000,3 hPa 2,1 l/m 8,7 km/h N 1,9 C 2,8 C 24,9 km/h
12.04.2012 09:00 5,0 C 82 % 1000,3 hPa 1,6 l/m 10,4 km/h N 2,2 C 2,0 C 27,8 km/h
12.04.2012 10:00 5,7 C 82 % 1000,5 hPa 0,8 l/m 13,0 km/h N 2,8 C 0,9 C 34,6 km/h
12.04.2012 11:00 6,5 C 81 % 1001,0 hPa 0,0 l/m 15,4 km/h N 3,5 C 0,7 C 33,8 km/h
12.04.2012 12:00 7,0 C 80 % 1001,7 hPa 0,3 l/m 11,4 km/h N 3,7 C 3,4 C 25,4 km/h
12.04.2012 13:00 7,3 C 81 % 1002,1 hPa 0,5 l/m 8,0 km/h N 4,2 C 6,0 C 24,9 km/h
12.04.2012 14:00 8,1 C 82 % 1002,2 hPa 0,0 l/m 7,2 km/h N 5,1 C 7,4 C 19,3 km/h
12.04.2012 15:00 9,0 C 79 % 1002,3 hPa 0,0 l/m 6,5 km/h N 5,6 C 8,5 C 18,1 km/h
12.04.2012 16:00 9,2 C 79 % 1002,6 hPa 0,3 l/m 6,4 km/h N 5,8 C 9,0 C 20,5 km/h
12.04.2012 17:00 9,7 C 77 % 1003,0 hPa 0,0 l/m 5,5 km/h N 5,9 C 9,7 C 14,1 km/h
12.04.2012 18:00 9,8 C 75 % 1003,3 hPa 0,0 l/m 2,3 km/h N 5,7 C 9,8 C 9,2 km/h
12.04.2012 19:00 9,1 C 77 % 1003,4 hPa 0,0 l/m 0,2 km/h N 5,2 C 9,1 C 2,4 km/h
12.04.2012 20:00 7,0 C 79 % 1003,9 hPa 0,0 l/m 0,0 km/h N 3,6 C 7,0 C 0,0 km/h
12.04.2012 21:00 5,1 C 82 % 1004,4 hPa 0,0 l/m 0,0 km/h N 2,3 C 5,1 C 0,4 km/h
12.04.2012 22:00 3,9 C 82 % 1004,4 hPa 0,0 l/m 0,0 km/h N 1,2 C 3,9 C 0,0 km/h
12.04.2012 23:00 3,3 C 82 % 1004,5 hPa 0,0 l/m 0,0 km/h N 0,5 C 3,3 C 0,4 km/h
13.04.2012 00:00 2,4 C 82 % 1004,6 hPa 0,0 l/m 0,0 km/h N -0,4 C 2,4 C 0,0 km/h
13.04.2012 01:00 1,9 C 82 % 1004,7 hPa 0,0 l/m 0,0 km/h N -0,9 C 1,9 C 0,0 km/h
13.04.2012 02:00 1,3 C 82 % 1004,4 hPa 0,0 l/m 0,0 km/h N -1,6 C 1,3 C 0,0 km/h
13.04.2012 03:00 1,5 C 80 % 1004,5 hPa 0,0 l/m 0,1 km/h N -1,5 C 1,5 C 2,0 km/h
13.04.2012 04:00 1,7 C 80 % 1004,3 hPa 0,0 l/m 0,4 km/h N -1,3 C 1,7 C 4,0 km/h
13.04.2012 05:00 1,5 C 80 % 1004,2 hPa 0,0 l/m 0,2 km/h N -1,6 C 1,5 C 2,8 km/h
13.04.2012 06:00 1,3 C 80 % 1004,7 hPa 0,0 l/m 0,0 km/h N -1,8 C 1,3 C 0,4 km/h
13.04.2012 07:00 2,0 C 78 % 1005,1 hPa 0,0 l/m 0,1 km/h N -1,4 C 2,0 C 1,2 km/h
13.04.2012 08:00 5,3 C 76 % 1005,2 hPa 0,0 l/m 0,6 km/h N 1,3 C 5,3 C 4,0 km/h
13.04.2012 09:00 8,2 C 79 % 1005,0 hPa 0,0 l/m 1,6 km/h N 4,7 C 8,2 C 6,0 km/h
13.04.2012 10:00 11,0 C 75 % 1004,6 hPa 0,0 l/m 1,6 km/h N 6,7 C 11,0 C 7,6 km/h
13.04.2012 11:00 12,6 C 69 % 1004,4 hPa 0,0 l/m 2,1 km/h N 6,9 C 12,6 C 8,1 km/h
13.04.2012 12:00 13,1 C 66 % 1004,0 hPa 0,3 l/m 2,6 km/h N 7,0 C 13,1 C 10,5 km/h
13.04.2012 13:00 13,5 C 69 % 1003,5 hPa 0,0 l/m 2,1 km/h N 7,9 C 13,5 C 10,5 km/h
13.04.2012 14:00 14,2 C 64 % 1002,9 hPa 0,0 l/m 2,4 km/h N 7,5 C 14,2 C 11,3 km/h
13.04.2012 15:00 14,9 C 61 % 1002,4 hPa 0,0 l/m 1,5 km/h N 7,3 C 14,9 C 7,2 km/h
13.04.2012 16:00 14,8 C 59 % 1002,2 hPa 0,0 l/m 1,1 km/h N 7,0 C 14,8 C 6,8 km/h
13.04.2012 17:00 14,5 C 60 % 1002,0 hPa 0,0 l/m 0,6 km/h N 6,7 C 14,5 C 4,0 km/h
13.04.2012 18:00 14,1 C 62 % 1001,9 hPa 0,0 l/m 0,0 km/h N 7,0 C 14,1 C 0,0 km/h
13.04.2012 19:00 13,2 C 69 % 1001,7 hPa 0,0 l/m 0,0 km/h N 7,5 C 13,2 C 0,0 km/h
13.04.2012 20:00 11,9 C 73 % 1001,7 hPa 0,0 l/m 0,0 km/h N 7,1 C 11,9 C 0,8 km/h
13.04.2012 21:00 11,2 C 75 % 1001,7 hPa 0,0 l/m 1,7 km/h N 7,0 C 11,2 C 6,0 km/h
13.04.2012 22:00 11,6 C 75 % 1001,4 hPa 0,0 l/m 3,2 km/h N 7,2 C 11,6 C 9,6 km/h
13.04.2012 23:00 11,0 C 76 % 1001,3 hPa 0,0 l/m 4,5 km/h N 7,0 C 11,0 C 10,9 km/h
14.04.2012 00:00 10,5 C 77 % 1001,3 hPa 0,0 l/m 4,4 km/h N 6,6 C 10,5 C 10,1 km/h
14.04.2012 01:00 9,9 C 78 % 1001,0 hPa 0,0 l/m 4,2 km/h N 6,1 C 9,9 C 11,7 km/h
14.04.2012 02:00 9,4 C 77 % 1000,5 hPa 0,0 l/m 5,1 km/h N 5,6 C 9,4 C 12,9 km/h
14.04.2012 03:00 9,1 C 76 % 1000,4 hPa 0,0 l/m 5,5 km/h N 5,1 C 9,1 C 16,5 km/h
14.04.2012 04:00 8,8 C 76 % 1000,3 hPa 0,0 l/m 5,5 km/h N 4,9 C 8,8 C 13,7 km/h
14.04.2012 05:00 8,7 C 76 % 1000,0 hPa 0,0 l/m 6,1 km/h N 4,7 C 8,4 C 16,9 km/h
14.04.2012 06:00 8,4 C 78 % 999,9 hPa 0,0 l/m 5,7 km/h N 4,7 C 8,4 C 14,5 km/h
14.04.2012 07:00 8,3 C 78 % 1000,1 hPa 0,0 l/m 5,2 km/h N 4,6 C 8,3 C 14,1 km/h
14.04.2012 08:00 9,1 C 76 % 1000,0 hPa 0,0 l/m 6,8 km/h N 5,0 C 8,6 C 16,9 km/h
14.04.2012 09:00 9,7 C 74 % 1000,1 hPa 0,0 l/m 5,3 km/h N 5,3 C 9,7 C 16,5 km/h
14.04.2012 10:00 10,0 C 75 % 1000,0 hPa 0,0 l/m 4,7 km/h N 5,8 C 10,0 C 10,5 km/h
14.04.2012 11:00 10,4 C 76 % 999,6 hPa 0,0 l/m 7,2 km/h N 6,4 C 9,8 C 17,7 km/h
14.04.2012 12:00 11,3 C 73 % 999,1 hPa 0,0 l/m 7,8 km/h N 6,6 C 10,4 C 17,7 km/h
14.04.2012 13:00 12,1 C 70 % 998,6 hPa 0,0 l/m 8,8 km/h N 6,8 C 10,7 C 20,1 km/h
14.04.2012 14:00 12,6 C 68 % 998,1 hPa 0,0 l/m 9,1 km/h N 6,9 C 10,9 C 21,3 km/h
14.04.2012 15:00 12,8 C 65 % 997,9 hPa 0,0 l/m 7,3 km/h N 6,2 C 12,0 C 18,1 km/h
14.04.2012 16:00 12,7 C 62 % 997,8 hPa 0,0 l/m 7,3 km/h N 5,6 C 12,0 C 18,1 km/h
14.04.2012 17:00 12,9 C 62 % 997,5 hPa 0,0 l/m 6,8 km/h N 5,7 C 12,6 C 18,5 km/h
14.04.2012 18:00 13,0 C 63 % 997,5 hPa 0,0 l/m 5,8 km/h N 6,1 C 13,0 C 14,9 km/h
14.04.2012 19:00 12,8 C 65 % 997,6 hPa 0,0 l/m 5,8 km/h N 6,4 C 12,8 C 16,1 km/h
14.04.2012 20:00 12,4 C 66 % 998,0 hPa 0,0 l/m 6,9 km/h N 6,3 C 12,0 C 18,9 km/h
14.04.2012 21:00 11,9 C 67 % 998,1 hPa 0,0 l/m 7,2 km/h N 6,1 C 11,4 C 19,3 km/h
14.04.2012 22:00 11,5 C 69 % 997,9 hPa 0,0 l/m 7,0 km/h N 6,0 C 11,1 C 18,5 km/h
14.04.2012 23:00 11,2 C 71 % 997,8 hPa 0,0 l/m 6,2 km/h N 6,2 C 11,2 C 18,5 km/h
15.04.2012 00:00 10,7 C 75 % 997,7 hPa 0,0 l/m 5,6 km/h N 6,4 C 10,5 C 14,1 km/h
15.04.2012 01:00 10,4 C 76 % 997,4 hPa 0,0 l/m 5,8 km/h N 6,4 C 10,3 C 14,5 km/h
15.04.2012 02:00 10,4 C 75 % 997,0 hPa 0,0 l/m 6,6 km/h N 6,2 C 10,2 C 18,5 km/h
15.04.2012 03:00 10,3 C 75 % 996,9 hPa 0,0 l/m 5,8 km/h N 6,0 C 10,3 C 14,9 km/h
15.04.2012 04:00 10,1 C 75 % 996,8 hPa 0,0 l/m 6,1 km/h N 5,9 C 10,0 C 13,3 km/h
15.04.2012 05:00 9,8 C 77 % 996,6 hPa 0,0 l/m 5,8 km/h N 5,9 C 9,7 C 14,9 km/h
15.04.2012 06:00 9,6 C 79 % 996,8 hPa 0,0 l/m 6,0 km/h N 6,1 C 9,4 C 14,5 km/h
15.04.2012 07:00 8,8 C 82 % 997,2 hPa 0,5 l/m 5,6 km/h N 5,8 C 8,8 C 14,9 km/h
15.04.2012 08:00 8,6 C 81 % 997,4 hPa 0,0 l/m 6,6 km/h N 5,6 C 8,5 C 16,9 km/h
15.04.2012 09:00 9,1 C 82 % 997,7 hPa 0,0 l/m 6,6 km/h N 6,2 C 8,9 C 16,5 km/h
15.04.2012 10:00 9,0 C 82 % 998,1 hPa 0,0 l/m 7,6 km/h N 6,0 C 8,1 C 18,1 km/h
15.04.2012 11:00 9,2 C 82 % 998,3 hPa 0,0 l/m 7,2 km/h N 6,2 C 8,6 C 18,5 km/h
15.04.2012 12:00 9,5 C 82 % 998,3 hPa 0,0 l/m 9,5 km/h N 6,6 C 7,4 C 20,5 km/h
15.04.2012 13:00 9,8 C 81 % 998,6 hPa 0,0 l/m 9,7 km/h N 6,7 C 7,5 C 22,5 km/h
15.04.2012 14:00 9,7 C 82 % 998,8 hPa 0,0 l/m 8,7 km/h N 6,8 C 8,1 C 18,9 km/h
15.04.2012 15:00 9,9 C 81 % 998,8 hPa 0,0 l/m 10,2 km/h N 6,9 C 7,4 C 22,1 km/h
15.04.2012 16:00 9,7 C 82 % 999,2 hPa 0,0 l/m 9,7 km/h N 6,8 C 7,5 C 21,7 km/h
15.04.2012 17:00 9,5 C 82 % 999,4 hPa 0,0 l/m 9,4 km/h N 6,6 C 7,4 C 22,9 km/h
15.04.2012 18:00 9,3 C 82 % 999,9 hPa 0,0 l/m 8,4 km/h N 6,4 C 7,9 C 21,3 km/h
15.04.2012 19:00 9,1 C 82 % 1000,3 hPa 0,0 l/m 8,3 km/h N 6,2 C 7,8 C 18,5 km/h
15.04.2012 20:00 9,1 C 82 % 1000,9 hPa 0,0 l/m 8,1 km/h N 6,2 C 7,9 C 19,7 km/h
15.04.2012 21:00 8,9 C 82 % 1001,3 hPa 0,0 l/m 6,8 km/h N 6,0 C 8,4 C 18,5 km/h
15.04.2012 22:00 8,8 C 82 % 1001,6 hPa 0,0 l/m 8,2 km/h N 5,9 C 7,3 C 21,7 km/h
15.04.2012 23:00 8,8 C 82 % 1001,6 hPa 0,0 l/m 10,2 km/h N 5,9 C 6,2 C 22,9 km/h
Min-Datum _ 10.04.12 10.04.12 11.04.12 - 09.04.12 - 09.04.12 09.04.12 09.04.12
_ Min-Zeit 06:30 16:45 16:30 - 19:30 - 05:45 00:15 19:30
Minimum _ -0,8 C 31 % 996,2 hPa - 0,0 km/h - -7,3 C -2,0 C 0,0 km/h
Max-Datum _ 11.04.12 12.04.12 09.04.12 12.04.12 10.04.12 - 13.04.12 11.04.12 12.04.12
_ Max-Zeit 16:30 21:45 01:30 08:30 19:45 - 13:30 15:15 10:15
Maximum _ 19,8 C 83 % 1015,4 hPa 2,1 l/m 18,5 km/h
N
- 8,8 C 19,7 C 38,6 km/h
N
Durchschnitt _ 8,7 C 65 % 1002,8 hPa #7,3 l/m 5,3 km/h N 2,0 C 8,0 C 14,2 km/h